createdAt,value
2022-10-19T00:00:47.997Z,65.54
2022-10-19T00:03:18.265Z,65.72
2022-10-19T00:05:47.583Z,66.03
2022-10-19T00:08:14.363Z,66.79
2022-10-19T00:10:42.010Z,66.47
2022-10-19T00:13:08.791Z,66.48
2022-10-19T00:15:40.178Z,66.61
2022-10-19T00:18:08.055Z,66.73
2022-10-19T00:20:36.187Z,66.62
2022-10-19T00:23:03.014Z,66.20
2022-10-19T00:25:29.854Z,66.50
2022-10-19T00:27:56.547Z,66.99
2022-10-19T00:30:23.381Z,66.97
2022-10-19T00:32:50.138Z,67.27
2022-10-19T00:35:16.922Z,67.37
2022-10-19T00:37:43.639Z,67.39
2022-10-19T00:40:10.827Z,67.94
2022-10-19T00:42:37.619Z,67.42
2022-10-19T00:45:14.456Z,67.22
2022-10-19T00:47:42.663Z,67.33
2022-10-19T00:50:10.572Z,67.16
2022-10-19T00:52:37.476Z,67.28
2022-10-19T00:55:04.856Z,67.15
2022-10-19T00:57:32.105Z,67.55
2022-10-19T00:59:59.815Z,66.86
2022-10-19T01:02:26.892Z,66.91
2022-10-19T01:04:54.013Z,68.09
2022-10-19T01:07:21.376Z,67.85
2022-10-19T01:09:48.391Z,68.63
2022-10-19T01:12:21.144Z,68.67
2022-10-19T01:15:20.170Z,68.30
2022-10-19T01:18:13.090Z,68.99
2022-10-19T01:21:21.719Z,68.73
2022-10-19T01:24:07.023Z,68.75
2022-10-19T01:26:56.716Z,68.77
2022-10-19T01:30:01.206Z,68.95
2022-10-19T01:32:41.675Z,68.74
2022-10-19T01:35:22.807Z,69.30
2022-10-19T01:38:01.803Z,69.54
2022-10-19T01:40:34.409Z,69.76
2022-10-19T01:43:02.645Z,69.40
2022-10-19T01:45:37.235Z,69.58
2022-10-19T01:48:10.560Z,69.68
2022-10-19T01:50:51.127Z,69.65
2022-10-19T01:53:19.181Z,69.19
2022-10-19T01:55:49.230Z,68.32
2022-10-19T01:58:18.309Z,68.63
2022-10-19T02:00:45.556Z,69.32
2022-10-19T02:03:13.145Z,69.46
2022-10-19T02:05:41.137Z,69.92
2022-10-19T02:08:17.712Z,70.15
2022-10-19T02:10:45.297Z,69.69
2022-10-19T02:13:14.246Z,70.12
2022-10-19T02:15:44.168Z,69.90
2022-10-19T02:18:13.061Z,69.55
2022-10-19T02:20:39.904Z,70.08
2022-10-19T02:23:07.233Z,70.11
2022-10-19T02:25:34.255Z,70.94
2022-10-19T02:28:02.204Z,70.05
2022-10-19T02:30:29.079Z,70.89
2022-10-19T02:32:55.924Z,71.61
2022-10-19T02:35:23.057Z,71.40
2022-10-19T02:37:49.994Z,70.67
2022-10-19T02:40:16.963Z,70.61
2022-10-19T02:42:54.471Z,70.62
2022-10-19T02:45:31.256Z,70.65
2022-10-19T02:48:07.409Z,70.88
2022-10-19T02:50:34.423Z,70.92
2022-10-19T02:53:01.571Z,70.38
2022-10-19T02:55:29.995Z,70.82
2022-10-19T02:57:57.491Z,70.84
2022-10-19T03:00:24.316Z,71.22
2022-10-19T03:02:51.404Z,70.95
2022-10-19T03:05:18.094Z,71.77
2022-10-19T03:07:44.820Z,71.35
2022-10-19T03:10:11.662Z,71.35
2022-10-19T03:12:38.390Z,70.78
2022-10-19T03:15:05.523Z,70.73
2022-10-19T03:17:32.490Z,71.11
2022-10-19T03:19:59.478Z,69.77
2022-10-19T03:22:26.203Z,70.38
2022-10-19T03:24:52.958Z,70.96
2022-10-19T03:27:19.840Z,70.15
2022-10-19T03:29:46.711Z,70.84
2022-10-19T03:32:13.487Z,70.21
2022-10-19T03:34:40.244Z,69.54
2022-10-19T03:37:08.616Z,69.50
2022-10-19T03:39:35.530Z,70.72
2022-10-19T03:42:02.285Z,71.15
2022-10-19T03:44:29.198Z,71.90
2022-10-19T03:46:56.010Z,71.49
2022-10-19T03:49:22.713Z,71.39
2022-10-19T03:51:49.532Z,71.58
2022-10-19T03:54:16.815Z,72.10
2022-10-19T03:56:44.010Z,72.78
2022-10-19T03:59:13.210Z,72.36
2022-10-19T04:01:43.451Z,72.07
2022-10-19T04:04:16.467Z,72.60
2022-10-19T04:06:45.229Z,72.81
2022-10-19T04:09:15.372Z,72.25
2022-10-19T04:11:42.648Z,72.79
2022-10-19T04:14:15.937Z,72.93
2022-10-19T04:16:49.763Z,72.95
2022-10-19T04:19:17.354Z,72.45
2022-10-19T04:21:44.832Z,72.84
2022-10-19T04:24:16.678Z,72.87
2022-10-19T04:26:46.237Z,72.43
2022-10-19T04:29:13.925Z,72.13
2022-10-19T04:31:41.189Z,72.04
2022-10-19T04:34:08.681Z,71.78
2022-10-19T04:36:36.225Z,71.53
2022-10-19T04:39:04.441Z,71.86
2022-10-19T04:41:31.735Z,72.59
2022-10-19T04:44:00.001Z,72.20
2022-10-19T04:46:27.579Z,72.30
2022-10-19T04:48:54.907Z,71.88
2022-10-19T04:51:22.131Z,72.35
2022-10-19T04:53:49.097Z,72.15
2022-10-19T04:56:19.751Z,71.97
2022-10-19T04:58:47.101Z,71.90
2022-10-19T05:01:14.960Z,72.48
2022-10-19T05:03:41.766Z,71.70
2022-10-19T05:06:09.456Z,71.37
2022-10-19T05:08:36.978Z,71.11
2022-10-19T05:11:06.579Z,71.96
2022-10-19T05:13:33.770Z,71.98
2022-10-19T05:16:02.400Z,72.04
2022-10-19T05:18:29.452Z,70.80
2022-10-19T05:21:06.726Z,72.20
2022-10-19T05:23:34.219Z,72.75
2022-10-19T05:26:06.409Z,73.24
2022-10-19T05:28:33.885Z,73.14
2022-10-19T05:31:10.815Z,73.15
2022-10-19T05:33:38.350Z,72.43
2022-10-19T05:36:14.160Z,72.73
2022-10-19T05:38:41.485Z,72.72
2022-10-19T05:41:08.223Z,73.25
2022-10-19T05:43:35.044Z,72.22
2022-10-19T05:46:07.521Z,72.47
2022-10-19T05:48:35.088Z,72.04
2022-10-19T05:51:03.132Z,71.91
2022-10-19T05:53:29.975Z,71.45
2022-10-19T05:55:56.809Z,71.25
2022-10-19T05:58:23.845Z,70.31
2022-10-19T06:00:58.644Z,69.16
2022-10-19T06:03:27.227Z,69.04
2022-10-19T06:05:54.351Z,68.12
2022-10-19T06:08:22.659Z,65.53
2022-10-19T06:10:49.951Z,64.48
2022-10-19T06:13:17.740Z,63.21
2022-10-19T06:15:44.588Z,62.66
2022-10-19T06:18:12.558Z,63.17
2022-10-19T06:20:42.087Z,63.68
2022-10-19T06:23:09.357Z,62.82
2022-10-19T06:25:37.634Z,62.16
2022-10-19T06:28:04.489Z,61.30
2022-10-19T06:30:31.291Z,60.77
2022-10-19T06:32:59.042Z,60.94
2022-10-19T06:35:25.998Z,60.13
2022-10-19T06:37:52.705Z,59.73
2022-10-19T06:40:19.513Z,59.30
2022-10-19T06:42:46.326Z,58.68
2022-10-19T06:45:13.074Z,56.89
2022-10-19T06:47:39.957Z,57.54
2022-10-19T06:50:07.388Z,57.67
2022-10-19T06:52:35.502Z,57.08
2022-10-19T06:55:02.624Z,56.85
2022-10-19T06:57:29.535Z,55.79
2022-10-19T06:59:56.365Z,54.54
2022-10-19T07:02:23.140Z,52.89
2022-10-19T07:04:50.235Z,53.49
2022-10-19T07:07:16.984Z,52.06
2022-10-19T07:09:43.793Z,49.22
2022-10-19T07:12:10.975Z,48.29
2022-10-19T07:14:39.743Z,46.96
2022-10-19T07:17:07.493Z,46.20
2022-10-19T07:19:34.975Z,44.62
2022-10-19T07:22:01.781Z,45.65
2022-10-19T07:24:28.448Z,45.55
2022-10-19T07:26:55.568Z,44.45
2022-10-19T07:29:22.486Z,43.96
2022-10-19T07:31:49.351Z,43.60
2022-10-19T07:34:16.643Z,42.60
2022-10-19T07:36:48.189Z,40.32
2022-10-19T07:39:17.223Z,40.75
2022-10-19T07:41:44.371Z,39.97
2022-10-19T07:44:14.803Z,39.51
2022-10-19T07:46:42.710Z,39.41
2022-10-19T07:49:13.205Z,38.70
2022-10-19T07:51:40.659Z,38.36
2022-10-19T07:54:07.581Z,37.37
2022-10-19T07:56:35.141Z,37.93
2022-10-19T07:59:02.852Z,37.55
2022-10-19T08:01:32.167Z,37.00
2022-10-19T08:06:46.739Z,36.99
2022-10-19T08:09:33.338Z,35.49
2022-10-19T08:12:00.352Z,34.90
2022-10-19T08:14:27.123Z,34.45
2022-10-19T08:16:53.851Z,35.10
2022-10-19T08:19:22.608Z,33.89
2022-10-19T08:21:49.411Z,34.31
2022-10-19T08:24:17.934Z,32.64
2022-10-19T08:26:44.816Z,33.15
2022-10-19T08:29:31.511Z,32.33
2022-10-19T08:32:19.229Z,32.18
2022-10-19T08:35:10.707Z,32.16
2022-10-19T08:37:58.880Z,31.31
2022-10-19T08:40:31.196Z,31.60
2022-10-19T08:43:03.937Z,29.85
2022-10-19T08:45:33.625Z,28.52
2022-10-19T08:48:11.159Z,29.15
2022-10-19T08:50:43.298Z,28.24
2022-10-19T08:53:16.968Z,28.31
2022-10-19T08:56:06.602Z,27.16
2022-10-19T08:58:33.379Z,27.39
2022-10-19T09:01:07.962Z,27.30
2022-10-19T09:03:55.306Z,26.28
2022-10-19T09:06:37.711Z,27.47
2022-10-19T09:09:05.234Z,26.75
2022-10-19T09:11:37.654Z,26.22
2022-10-19T09:14:56.947Z,25.52
2022-10-19T09:17:25.347Z,26.39
2022-10-19T09:19:52.417Z,26.65
2022-10-19T09:22:27.500Z,24.81
2022-10-19T09:25:08.810Z,25.17
2022-10-19T09:27:39.159Z,24.32
2022-10-19T09:30:13.832Z,24.90
2022-10-19T09:32:40.654Z,25.08
2022-10-19T09:35:17.623Z,23.93
2022-10-19T09:37:46.292Z,23.89
2022-10-19T09:40:25.443Z,23.08
2022-10-19T09:42:57.331Z,23.15
2022-10-19T09:45:29.085Z,23.69
2022-10-19T09:47:58.269Z,23.75
2022-10-19T09:50:27.736Z,23.43
2022-10-19T09:52:57.560Z,23.93
2022-10-19T09:55:39.918Z,23.90
2022-10-19T09:58:16.908Z,23.13
2022-10-19T10:00:51.374Z,23.29
2022-10-19T10:03:24.474Z,23.35
2022-10-19T10:05:51.825Z,22.68
2022-10-19T10:08:22.042Z,22.33
2022-10-19T10:10:59.397Z,22.43
2022-10-19T10:13:28.118Z,23.64
2022-10-19T10:15:57.848Z,23.04
2022-10-19T10:18:26.087Z,22.80
2022-10-19T10:21:45.369Z,21.76
2022-10-19T10:24:12.112Z,20.98
2022-10-19T10:26:44.724Z,21.00
2022-10-19T10:29:32.746Z,20.74
2022-10-19T10:32:05.966Z,20.81
2022-10-19T10:34:50.257Z,20.13
2022-10-19T10:37:21.837Z,18.98
2022-10-19T10:39:52.911Z,18.61
2022-10-19T10:42:28.048Z,19.08
2022-10-19T10:44:56.416Z,19.17
2022-10-19T10:47:23.572Z,18.13
2022-10-19T10:49:58.774Z,18.34
2022-10-19T10:52:26.493Z,17.92
2022-10-19T10:55:03.796Z,18.51
2022-10-19T10:57:37.899Z,18.91
2022-10-19T11:00:12.278Z,18.49
2022-10-19T11:02:46.509Z,18.05
2022-10-19T11:05:29.317Z,18.47
2022-10-19T11:08:09.582Z,17.97
2022-10-19T11:11:02.621Z,17.55
2022-10-19T11:13:40.093Z,17.92
2022-10-19T11:16:13.629Z,16.74
2022-10-19T11:19:08.341Z,16.88
2022-10-19T11:21:40.987Z,16.77
2022-10-19T11:24:21.449Z,18.30
2022-10-19T11:27:22.387Z,17.53
2022-10-19T11:29:58.569Z,16.97
2022-10-19T11:32:46.308Z,16.92
2022-10-19T11:35:36.358Z,15.73
2022-10-19T11:38:30.275Z,16.14
2022-10-19T11:41:18.144Z,16.71
2022-10-19T11:44:03.756Z,17.55
2022-10-19T11:46:45.689Z,17.18
2022-10-19T11:50:03.769Z,16.96
2022-10-19T11:52:46.377Z,16.54
2022-10-19T11:55:36.557Z,16.54
2022-10-19T11:58:12.669Z,17.08
2022-10-19T12:00:50.267Z,17.85
2022-10-19T12:03:26.097Z,16.96
2022-10-19T12:06:18.105Z,16.75
2022-10-19T12:09:20.208Z,17.32
2022-10-19T12:12:07.984Z,16.77
2022-10-19T12:14:38.485Z,16.85
2022-10-19T12:17:11.198Z,17.15
2022-10-19T12:19:46.398Z,16.45
2022-10-19T12:22:21.714Z,15.59
2022-10-19T12:24:50.812Z,15.97
2022-10-19T12:27:27.032Z,16.48
2022-10-19T12:29:54.659Z,16.69
2022-10-19T12:32:21.298Z,16.90
2022-10-19T12:35:00.362Z,17.31
2022-10-19T12:37:33.480Z,17.72
2022-10-19T12:40:32.899Z,16.80
2022-10-19T12:43:25.060Z,16.51
2022-10-19T12:45:52.547Z,17.64
2022-10-19T12:48:21.487Z,17.76
2022-10-19T12:50:48.449Z,17.82
2022-10-19T12:53:47.738Z,17.53
2022-10-19T12:56:25.571Z,17.22
2022-10-19T12:58:59.856Z,17.21
2022-10-19T13:01:42.747Z,17.29
2022-10-19T13:04:21.782Z,16.98
2022-10-19T13:06:50.850Z,17.29
2022-10-19T13:09:30.976Z,17.39
2022-10-19T13:12:19.866Z,18.09
2022-10-19T13:14:59.007Z,17.95
2022-10-19T13:17:36.179Z,17.68
2022-10-19T13:20:15.166Z,18.32
2022-10-19T13:23:13.377Z,18.43
2022-10-19T13:25:41.250Z,18.42
2022-10-19T13:28:08.047Z,19.31
2022-10-19T13:30:46.965Z,18.98
2022-10-19T13:33:25.657Z,19.25
2022-10-19T13:36:04.229Z,18.75
2022-10-19T13:38:37.805Z,18.99
2022-10-19T13:41:06.473Z,19.18
2022-10-19T13:43:53.904Z,18.94
2022-10-19T13:46:59.511Z,19.10
2022-10-19T13:49:35.080Z,19.48
2022-10-19T13:52:01.746Z,19.53
2022-10-19T13:54:56.347Z,19.52
2022-10-19T13:57:28.691Z,19.56
2022-10-19T14:00:06.335Z,20.49
2022-10-19T14:02:51.143Z,20.17
2022-10-19T14:05:27.193Z,20.25
2022-10-19T14:08:09.299Z,20.66
2022-10-19T14:10:56.207Z,20.71
2022-10-19T14:13:25.852Z,20.99
2022-10-19T14:15:55.283Z,21.02
2022-10-19T14:18:33.750Z,21.68
2022-10-19T14:21:00.546Z,22.13
2022-10-19T14:23:35.666Z,23.11
2022-10-19T14:26:22.729Z,23.65
2022-10-19T14:28:57.445Z,24.43
2022-10-19T14:31:44.394Z,25.05
2022-10-19T14:34:11.313Z,26.10
2022-10-19T14:36:43.037Z,26.35
2022-10-19T14:39:22.806Z,27.25
2022-10-19T14:41:53.638Z,27.46
2022-10-19T14:44:32.469Z,28.11
2022-10-19T14:47:01.444Z,28.67
2022-10-19T14:49:28.280Z,28.96
2022-10-19T14:52:01.193Z,29.71
2022-10-19T14:54:43.018Z,30.03
2022-10-19T14:57:20.406Z,30.27
2022-10-19T14:59:52.460Z,30.67
2022-10-19T15:02:22.161Z,31.22
2022-10-19T15:04:49.793Z,31.50
2022-10-19T15:07:24.416Z,31.64
2022-10-19T15:10:00.115Z,32.18
2022-10-19T15:12:40.724Z,32.76
2022-10-19T15:15:15.262Z,33.19
2022-10-19T15:17:55.123Z,32.66
2022-10-19T15:20:29.760Z,32.97
2022-10-19T15:22:59.680Z,33.06
2022-10-19T15:25:36.968Z,32.88
2022-10-19T15:28:36.016Z,33.07
2022-10-19T15:31:27.223Z,33.76
2022-10-19T15:34:01.588Z,33.98
2022-10-19T15:36:30.325Z,33.77
2022-10-19T15:39:24.531Z,34.42
2022-10-19T15:41:52.601Z,34.20
2022-10-19T15:44:40.362Z,34.26
2022-10-19T15:47:16.466Z,34.49
2022-10-19T15:49:43.291Z,34.53
2022-10-19T15:52:21.267Z,34.45
2022-10-19T15:54:52.807Z,35.03
2022-10-19T15:57:31.632Z,35.02
2022-10-19T16:00:01.120Z,34.92
2022-10-19T16:02:27.953Z,35.55
2022-10-19T16:04:54.867Z,35.17
2022-10-19T16:07:30.674Z,35.11
2022-10-19T16:09:57.885Z,35.24
2022-10-19T16:12:26.367Z,35.76
2022-10-19T16:14:54.435Z,35.85
2022-10-19T16:17:21.452Z,36.29
2022-10-19T16:19:48.188Z,36.64
2022-10-19T16:22:16.256Z,36.54
2022-10-19T16:24:43.431Z,36.91
2022-10-19T16:27:14.960Z,36.79
2022-10-19T16:29:43.120Z,37.15
2022-10-19T16:32:10.011Z,37.64
2022-10-19T16:34:36.782Z,37.88
2022-10-19T16:37:06.659Z,38.08
2022-10-19T16:39:34.470Z,38.21
2022-10-19T16:42:01.394Z,38.84
2022-10-19T16:44:28.159Z,39.21
2022-10-19T16:46:58.864Z,39.17
2022-10-19T16:49:26.282Z,39.67
2022-10-19T16:51:56.396Z,39.62
2022-10-19T16:54:25.854Z,40.19
2022-10-19T16:56:52.723Z,40.36
2022-10-19T16:59:19.733Z,40.49
2022-10-19T17:01:47.110Z,40.23
2022-10-19T17:04:15.231Z,40.57
2022-10-19T17:06:42.021Z,40.92
2022-10-19T17:09:40.883Z,41.24
2022-10-19T17:11:55.859Z,41.19
2022-10-19T17:14:22.601Z,41.66
2022-10-19T17:16:49.492Z,41.68
2022-10-19T17:19:16.426Z,42.28
2022-10-19T17:21:43.198Z,42.07
2022-10-19T17:24:20.406Z,42.29
2022-10-19T17:26:48.752Z,42.08
2022-10-19T17:29:15.563Z,42.22
2022-10-19T17:31:42.949Z,42.59
2022-10-19T17:34:09.962Z,42.78
2022-10-19T17:39:09.759Z,42.38
2022-10-19T17:41:36.588Z,42.71
2022-10-19T17:44:04.797Z,42.84
2022-10-19T17:46:33.515Z,43.49
2022-10-19T17:49:00.729Z,43.19
2022-10-19T17:51:29.978Z,43.27
2022-10-19T17:54:01.302Z,43.65
2022-10-19T17:56:28.494Z,43.60
2022-10-19T17:58:57.000Z,44.14
2022-10-19T18:01:24.510Z,43.33
2022-10-19T18:03:51.337Z,43.99
2022-10-19T18:06:23.875Z,44.07
2022-10-19T18:08:55.644Z,43.99
2022-10-19T18:11:27.850Z,44.23
2022-10-19T18:13:57.074Z,44.31
2022-10-19T18:16:26.814Z,44.64
2022-10-19T18:18:55.591Z,44.43
2022-10-19T18:21:25.686Z,44.27
2022-10-19T18:23:53.705Z,44.35
2022-10-19T18:26:23.268Z,44.28
2022-10-19T18:28:52.498Z,44.38
2022-10-19T18:31:29.317Z,44.48
2022-10-19T18:34:04.508Z,44.67
2022-10-19T18:36:32.196Z,44.30
2022-10-19T18:39:03.406Z,44.62
2022-10-19T18:41:30.801Z,44.45
2022-10-19T18:44:03.862Z,44.43
2022-10-19T18:46:32.393Z,44.88
2022-10-19T18:49:03.987Z,44.79
2022-10-19T18:51:31.957Z,44.62
2022-10-19T18:53:59.148Z,45.35
2022-10-19T18:56:26.383Z,45.25
2022-10-19T18:58:53.160Z,45.27
2022-10-19T19:01:27.749Z,45.44
2022-10-19T19:04:01.341Z,45.52
2022-10-19T19:06:29.770Z,45.80
2022-10-19T19:08:57.939Z,45.14
2022-10-19T19:11:31.813Z,45.26
2022-10-19T19:14:13.099Z,45.14
2022-10-19T19:16:41.365Z,45.67
2022-10-19T19:19:08.723Z,45.71
2022-10-19T19:21:36.712Z,45.67
2022-10-19T19:24:05.986Z,45.94
2022-10-19T19:26:36.989Z,46.59
2022-10-19T19:29:04.489Z,46.46
2022-10-19T19:31:31.399Z,47.25
2022-10-19T19:34:00.983Z,48.03
2022-10-19T19:36:28.366Z,48.40
2022-10-19T19:38:56.643Z,47.95
2022-10-19T19:41:23.462Z,47.80
2022-10-19T19:43:50.234Z,47.58
2022-10-19T19:46:19.107Z,47.95
2022-10-19T19:48:47.749Z,48.63
2022-10-19T19:51:17.353Z,48.55
2022-10-19T19:53:44.404Z,49.80
2022-10-19T19:56:12.677Z,50.48
2022-10-19T19:58:40.023Z,51.16
2022-10-19T20:01:15.515Z,50.96
2022-10-19T20:03:42.565Z,51.59
2022-10-19T20:06:10.277Z,52.12
2022-10-19T20:08:37.454Z,52.13
2022-10-19T20:11:06.890Z,52.23
2022-10-19T20:13:34.787Z,52.73
2022-10-19T20:16:10.103Z,52.90
2022-10-19T20:18:36.872Z,52.98
2022-10-19T20:21:04.932Z,53.56
2022-10-19T20:23:31.832Z,52.85
2022-10-19T20:25:59.048Z,53.46
2022-10-19T20:28:26.653Z,53.65
2022-10-19T20:31:05.486Z,53.49
2022-10-19T20:33:34.707Z,54.31
2022-10-19T20:36:06.535Z,54.24
2022-10-19T20:38:34.244Z,54.01
2022-10-19T20:41:07.784Z,54.49
2022-10-19T20:43:38.640Z,54.79
2022-10-19T20:46:16.474Z,54.51
2022-10-19T20:48:43.781Z,54.73
2022-10-19T20:51:30.601Z,54.82
2022-10-19T20:54:00.648Z,55.16
2022-10-19T20:56:30.195Z,55.23
2022-10-19T20:59:05.950Z,55.88
2022-10-19T21:01:35.015Z,56.17
2022-10-19T21:04:04.611Z,56.39
2022-10-19T21:06:33.926Z,56.78
2022-10-19T21:09:01.086Z,57.40
2022-10-19T21:11:33.219Z,57.41
2022-10-19T21:14:02.524Z,57.54
2022-10-19T21:16:30.321Z,57.62
2022-10-19T21:18:57.955Z,58.21
2022-10-19T21:21:27.356Z,58.23
2022-10-19T21:23:58.046Z,57.97
2022-10-19T21:26:26.608Z,57.93
2022-10-19T21:28:53.600Z,57.92
2022-10-19T21:31:21.854Z,57.80
2022-10-19T21:33:48.910Z,57.50
2022-10-19T21:36:15.792Z,56.97
2022-10-19T21:38:42.943Z,57.58
2022-10-19T21:41:14.955Z,57.57
2022-10-19T21:43:42.082Z,57.92
2022-10-19T21:46:12.866Z,57.87
2022-10-19T21:48:39.842Z,57.92
2022-10-19T21:51:46.577Z,58.32
2022-10-19T21:54:16.080Z,58.64
2022-10-19T21:56:43.644Z,59.22
2022-10-19T21:59:18.778Z,59.36
2022-10-19T22:01:45.626Z,59.52
2022-10-19T22:04:17.198Z,59.53
2022-10-19T22:06:44.379Z,60.27
2022-10-19T22:09:13.925Z,60.26
2022-10-19T22:11:40.799Z,60.59
2022-10-19T22:14:07.667Z,60.80
2022-10-19T22:16:36.971Z,60.89
2022-10-19T22:19:05.353Z,61.25
2022-10-19T22:21:33.507Z,61.35
2022-10-19T22:24:02.311Z,61.60
2022-10-19T22:26:31.669Z,61.84
2022-10-19T22:28:59.838Z,61.44
2022-10-19T22:31:27.975Z,61.38
2022-10-19T22:33:54.814Z,61.40
2022-10-19T22:36:21.899Z,62.07
2022-10-19T22:38:48.811Z,61.83
2022-10-19T22:41:15.524Z,60.89
2022-10-19T22:43:42.263Z,61.44
2022-10-19T22:46:09.022Z,61.50
2022-10-19T22:48:35.835Z,60.80
2022-10-19T22:51:02.644Z,60.81
2022-10-19T22:53:29.380Z,61.20
2022-10-19T22:55:58.338Z,61.21
2022-10-19T22:58:25.067Z,60.86
2022-10-19T23:01:09.532Z,61.12
2022-10-19T23:03:37.621Z,60.85
2022-10-19T23:06:04.418Z,61.31
2022-10-19T23:08:31.258Z,61.10
2022-10-19T23:10:58.009Z,61.36
2022-10-19T23:13:24.802Z,61.37
2022-10-19T23:15:51.645Z,61.49
2022-10-19T23:18:18.522Z,61.66
2022-10-19T23:21:00.100Z,61.84
2022-10-19T23:23:28.057Z,61.61
2022-10-19T23:26:09.300Z,61.54
2022-10-19T23:28:38.051Z,61.63
2022-10-19T23:31:07.383Z,62.01
2022-10-19T23:33:34.889Z,62.13
2022-10-19T23:36:10.269Z,62.24
2022-10-19T23:38:36.984Z,62.34
2022-10-19T23:41:04.245Z,63.16
2022-10-19T23:43:31.391Z,62.67
2022-10-19T23:45:58.523Z,63.35
2022-10-19T23:48:25.445Z,63.26
2022-10-19T23:51:02.582Z,62.97
2022-10-19T23:53:30.469Z,62.47
2022-10-19T23:56:01.806Z,62.48
2022-10-19T23:58:28.776Z,62.74
